Time;durP1;ratioP1;P1;durP2;ratioP2;P2;SDS_P1;SDS_P2;PMS_P1;PMS_P2;Temp;Humidity;BMP_temperature;BMP_pressure;BME280_temperature;BME280_humidity;BME280_pressure;Samples;Min_cycle;Max_cycle;Signal;HPM_P1;HPM_P2
2022/02/20 00:00:59;;;;;;;11.15;0.85;;;5.70;99.90;;;;;;4977190;28;20037;-87
2022/02/20 00:03:25;;;;;;;14.48;1.23;;;5.70;99.90;;;;;;4960954;28;20034;-86
2022/02/20 00:05:52;;;;;;;7.90;0.90;;;5.70;99.90;;;;;;4959285;28;20026;-84
2022/02/20 00:08:19;;;;;;;15.88;1.10;;;5.70;99.90;;;;;;4973698;28;20030;-83
2022/02/20 00:10:45;;;;;;;8.00;1.47;;;5.70;99.90;;;;;;4957496;28;20050;-84
2022/02/20 00:13:12;;;;;;;11.68;0.80;;;5.70;99.90;;;;;;4957552;28;20052;-84
2022/02/20 00:15:38;;;;;;;10.18;1.15;;;5.70;99.90;;;;;;4947609;28;20019;-84
2022/02/20 00:18:06;;;;;;;8.30;0.60;;;5.70;99.90;;;;;;4959999;28;20042;-83
2022/02/20 00:20:33;;;;;;;7.60;0.70;;;5.70;99.90;;;;;;4942943;28;20030;-86
2022/02/20 00:23:02;;;;;;;9.07;0.73;;;5.60;99.90;;;;;;4992014;28;20630;-86
2022/02/20 00:25:31;;;;;;;9.00;0.65;;;5.60;99.90;;;;;;4945222;28;20030;-87
2022/02/20 00:28:02;;;;;;;7.53;0.68;;;5.60;99.90;;;;;;4955746;28;20053;-86
2022/02/20 00:30:30;;;;;;;4.85;0.70;;;5.50;99.90;;;;;;4976403;28;20109;-86
2022/02/20 00:33:00;;;;;;;8.95;1.15;;;5.40;99.90;;;;;;4955876;28;20052;-86
2022/02/20 00:35:33;;;;;;;9.80;0.60;;;5.40;99.90;;;;;;4958455;28;20032;-86
2022/02/20 00:38:00;;;;;;;;;;;5.40;99.90;;;;;;4944055;28;20026;-86
2022/02/20 00:40:31;;;;;;;10.65;0.60;;;5.30;99.90;;;;;;4960336;28;20363;-87
2022/02/20 00:42:58;;;;;;;8.85;0.98;;;5.20;99.90;;;;;;4967841;28;20037;-87
2022/02/20 00:45:25;;;;;;;5.83;0.70;;;5.20;99.90;;;;;;4990076;28;20042;-86
2022/02/20 00:47:53;;;;;;;7.50;0.60;;;5.10;99.90;;;;;;4990309;28;20026;-87
2022/02/20 00:50:25;;;;;;;7.10;0.70;;;5.10;99.90;;;;;;4956885;28;20047;-85
2022/02/20 00:52:53;;;;;;;6.80;0.93;;;5.00;99.90;;;;;;4960957;28;20022;-86
2022/02/20 00:55:21;;;;;;;9.87;0.77;;;5.00;99.90;;;;;;4972944;28;20026;-87
2022/02/20 00:57:47;;;;;;;9.67;0.63;;;4.90;99.90;;;;;;4956517;28;20046;-85
2022/02/20 01:00:15;;;;;;;10.47;0.70;;;4.90;99.90;;;;;;4943862;28;20034;-86
2022/02/20 01:02:44;;;;;;;8.13;1.37;;;4.90;99.90;;;;;;4954302;28;20041;-87
2022/02/20 01:05:11;;;;;;;7.93;0.75;;;4.90;99.90;;;;;;4957034;28;20033;-86
2022/02/20 01:07:39;;;;;;;9.07;0.70;;;4.90;99.90;;;;;;4970458;28;20045;-86
2022/02/20 01:10:10;;;;;;;10.80;0.73;;;4.90;99.90;;;;;;4958350;28;20054;-86
2022/02/20 01:12:40;;;;;;;8.38;0.80;;;4.90;99.90;;;;;;4975271;28;20061;-86
2022/02/20 01:15:10;;;;;;;6.45;0.60;;;4.90;99.90;;;;;;4972327;28;20022;-86
2022/02/20 01:17:37;;;;;;;6.60;0.70;;;4.90;99.90;;;;;;4985858;28;20033;-86
2022/02/20 01:20:07;;;;;;;6.00;0.63;;;4.90;99.90;;;;;;4975114;28;20026;-86
2022/02/20 01:22:34;;;;;;;4.28;0.70;;;4.90;99.90;;;;;;4974360;28;20069;-87
2022/02/20 01:25:00;;;;;;;5.07;0.50;;;4.90;99.90;;;;;;4974166;28;20033;-86
2022/02/20 01:27:30;;;;;;;5.07;0.50;;;4.90;99.90;;;;;;4957253;28;20039;-86
2022/02/20 01:29:57;;;;;;;2.17;0.30;;;4.90;99.90;;;;;;4960043;28;20370;-85
2022/02/20 01:32:24;;;;;;;9.45;0.73;;;4.90;99.90;;;;;;4971786;28;20030;-86
2022/02/20 01:34:50;;;;;;;7.90;0.60;;;4.90;99.90;;;;;;4959717;28;20049;-86
2022/02/20 01:37:17;;;;;;;5.93;0.50;;;5.00;99.90;;;;;;4945103;28;20070;-86
2022/02/20 01:39:43;;;;;;;4.05;0.40;;;5.00;99.90;;;;;;4930313;28;20481;-86
2022/02/20 01:42:19;;;;;;;4.80;0.40;;;5.00;99.90;;;;;;4946559;28;20049;-85
2022/02/20 01:44:46;;;;;;;4.33;0.50;;;5.00;99.90;;;;;;4946651;28;20505;-85
2022/02/20 01:47:15;;;;;;;5.15;0.50;;;5.00;99.90;;;;;;4943582;28;20048;-86
2022/02/20 01:49:43;;;;;;;1.02;0.40;;;5.00;99.90;;;;;;4962910;28;20366;-86
2022/02/20 01:52:13;;;;;;;8.48;0.93;;;5.00;99.90;;;;;;4946576;28;20031;-86
2022/02/20 01:54:40;;;;;;;7.60;1.10;;;5.10;99.90;;;;;;4978044;28;20022;-86
2022/02/20 01:57:08;;;;;;;5.47;0.63;;;5.10;99.90;;;;;;4947181;28;20034;-86
2022/02/20 01:59:47;;;;;;;5.10;0.83;;;5.00;99.90;;;;;;4993109;28;20056;-87
2022/02/20 02:02:33;;;;;;;9.77;0.82;;;5.10;99.90;;;;;;4965617;28;20465;-87
2022/02/20 02:05:07;;;;;;;7.07;0.60;;;5.00;99.90;;;;;;4934050;28;20046;-87
2022/02/20 02:07:40;;;;;;;5.50;0.98;;;5.00;99.90;;;;;;4927281;28;20030;-86
2022/02/20 02:10:31;;;;;;;3.60;0.50;;;5.10;99.90;;;;;;4960990;28;20034;-86
2022/02/20 02:13:19;;;;;;;8.18;0.88;;;5.10;99.90;;;;;;4948097;28;20379;-86
2022/02/20 02:16:05;;;;;;;4.22;0.60;;;5.00;99.90;;;;;;4975873;28;20037;-86
2022/02/20 02:18:36;;;;;;;2.80;0.43;;;5.00;99.90;;;;;;4944311;28;20034;-87
2022/02/20 02:21:12;;;;;;;6.83;0.77;;;5.10;99.90;;;;;;4963882;28;20037;-86
2022/02/20 02:23:59;;;;;;;3.53;0.50;;;5.10;99.90;;;;;;4952226;28;20044;-86
2022/02/20 02:26:49;;;;;;;3.53;0.70;;;5.10;99.90;;;;;;4986273;28;20032;-86
2022/02/20 02:29:32;;;;;;;4.72;0.70;;;5.10;99.90;;;;;;4948853;28;20065;-86
2022/02/20 02:31:59;;;;;;;2.45;0.40;;;5.10;99.90;;;;;;4949282;28;20046;-86
2022/02/20 02:34:26;;;;;;;3.70;0.50;;;5.10;99.90;;;;;;4961842;28;20044;-86
2022/02/20 02:36:54;;;;;;;4.28;0.40;;;5.10;99.90;;;;;;4971746;28;20030;-86
2022/02/20 02:39:21;;;;;;;3.50;0.70;;;5.10;99.90;;;;;;4937269;28;20132;-87
2022/02/20 02:41:48;;;;;;;2.15;0.30;;;5.10;99.90;;;;;;4961860;28;20402;-86
2022/02/20 02:44:15;;;;;;;4.07;0.40;;;5.10;99.90;;;;;;4949321;28;20127;-87
2022/02/20 02:46:45;;;;;;;2.87;0.50;;;5.20;99.90;;;;;;4956835;28;20026;-86
2022/02/20 02:49:12;;;;;;;2.38;0.40;;;5.20;99.90;;;;;;4977517;28;20038;-86
2022/02/20 02:51:39;;;;;;;3.85;0.30;;;5.20;99.90;;;;;;4963068;28;20045;-85
2022/02/20 02:54:09;;;;;;;3.13;0.40;;;5.20;99.90;;;;;;4957190;28;20027;-86
2022/02/20 02:56:39;;;;;;;2.17;0.40;;;5.20;99.90;;;;;;4945870;28;20022;-86
2022/02/20 02:59:06;;;;;;;4.37;0.30;;;5.30;99.90;;;;;;4943569;28;20039;-86
2022/02/20 03:01:32;;;;;;;1.77;0.30;;;5.30;99.90;;;;;;4959952;28;20029;-86
2022/02/20 03:03:59;;;;;;;2.47;0.40;;;5.30;99.90;;;;;;4945287;28;20046;-86
2022/02/20 03:06:25;;;;;;;7.70;0.43;;;5.30;99.90;;;;;;4961975;28;20465;-86
2022/02/20 03:09:02;;;;;;;3.65;1.23;;;5.30;99.90;;;;;;4945123;28;20041;-87
2022/02/20 03:11:30;;;;;;;2.72;0.30;;;5.30;99.90;;;;;;4939763;28;20073;-86
2022/02/20 03:13:58;;;;;;;2.35;0.40;;;5.30;99.90;;;;;;4928420;28;20026;-87
2022/02/20 03:16:26;;;;;;;2.78;0.40;;;5.30;99.90;;;;;;4958878;28;20030;-86
2022/02/20 03:18:53;;;;;;;5.97;0.45;;;5.30;99.90;;;;;;4958433;28;20042;-86
2022/02/20 03:21:24;;;;;;;2.88;0.30;;;5.30;99.90;;;;;;4938803;28;20524;-86
2022/02/20 03:23:52;;;;;;;6.60;0.40;;;5.30;99.90;;;;;;4960920;28;20042;-87
2022/02/20 03:26:19;;;;;;;5.93;0.40;;;5.30;99.90;;;;;;4960853;28;20033;-86
2022/02/20 03:28:48;;;;;;;4.07;0.40;;;5.30;99.90;;;;;;4958670;28;20029;-86
2022/02/20 03:31:16;;;;;;;4.10;0.30;;;5.30;99.90;;;;;;4976272;28;20197;-86
2022/02/20 03:33:45;;;;;;;1.92;0.22;;;5.30;99.90;;;;;;4955857;28;21332;-86
2022/02/20 03:36:16;;;;;;;5.43;0.40;;;5.30;99.90;;;;;;4977333;28;20030;-86
2022/02/20 03:38:45;;;;;;;3.85;0.40;;;5.30;99.90;;;;;;4971155;28;20049;-86
2022/02/20 03:41:16;;;;;;;2.58;0.57;;;5.30;99.90;;;;;;4942722;28;20030;-87
2022/02/20 03:43:46;;;;;;;6.10;0.40;;;5.30;99.90;;;;;;4959473;28;20064;-87
2022/02/20 03:46:14;;;;;;;3.60;0.40;;;5.20;99.90;;;;;;4946381;28;20034;-87
2022/02/20 03:49:05;;;;;;;2.83;0.25;;;5.20;99.90;;;;;;4959182;28;20030;-86
2022/02/20 03:51:54;;;;;;;3.83;0.30;;;5.30;99.90;;;;;;4981687;28;20034;-86
2022/02/20 03:54:36;;;;;;;3.60;0.28;;;5.20;99.90;;;;;;4934913;28;20044;-86
2022/02/20 03:57:07;;;;;;;4.20;0.30;;;5.20;99.90;;;;;;4975455;28;20053;-86
2022/02/20 04:00:11;;;;;;;6.43;0.43;;;5.20;99.90;;;;;;4974844;28;20038;-86
2022/02/20 04:02:49;;;;;;;5.13;0.30;;;5.20;99.90;;;;;;4958990;28;20038;-86
2022/02/20 04:05:21;;;;;;;4.10;0.23;;;5.20;99.90;;;;;;4942945;28;20045;-86
2022/02/20 04:07:49;;;;;;;1.98;0.30;;;5.20;99.90;;;;;;4942975;28;20037;-87
2022/02/20 04:10:19;;;;;;;3.65;0.20;;;5.20;99.90;;;;;;4942533;28;20054;-86
2022/02/20 04:12:49;;;;;;;4.13;0.52;;;5.20;99.90;;;;;;4965676;28;20018;-87
2022/02/20 04:15:24;;;;;;;4.43;0.83;;;5.30;99.90;;;;;;4952858;28;20462;-86
2022/02/20 04:18:05;;;;;;;3.10;0.20;;;5.20;99.90;;;;;;4971485;28;20033;-87
2022/02/20 04:20:52;;;;;;;2.50;0.25;;;5.20;99.90;;;;;;4963319;28;20485;-86
2022/02/20 04:23:30;;;;;;;3.22;0.57;;;5.20;99.90;;;;;;4982160;28;20499;-86
2022/02/20 04:26:03;;;;;;;4.20;0.60;;;5.30;99.90;;;;;;4969164;28;20478;-86
2022/02/20 04:28:36;;;;;;;;;;;5.20;99.90;;;;;;4945005;28;20034;-86
2022/02/20 04:31:06;;;;;;;1.70;0.30;;;5.30;99.90;;;;;;4949401;28;19925;-86
2022/02/20 04:33:33;;;;;;;2.50;0.50;;;5.20;99.90;;;;;;4935813;28;20045;-87
2022/02/20 04:36:03;;;;;;;2.67;0.50;;;5.20;99.90;;;;;;4935312;28;20045;-86
2022/02/20 04:38:29;;;;;;;5.00;0.45;;;5.10;99.90;;;;;;4949272;28;20026;-83
2022/02/20 04:41:03;;;;;;;5.03;0.55;;;5.10;99.90;;;;;;4936645;28;20051;-83
2022/02/20 04:43:33;;;;;;;4.65;0.60;;;5.10;99.90;;;;;;4953724;28;20422;-83
2022/02/20 04:46:05;;;;;;;4.10;0.50;;;5.10;99.90;;;;;;4951365;28;20045;-83
2022/02/20 04:48:33;;;;;;;4.82;0.50;;;5.10;99.90;;;;;;4948090;28;20047;-84
2022/02/20 04:51:00;;;;;;;4.20;0.60;;;5.10;99.90;;;;;;4950925;28;20030;-85
2022/02/20 04:53:27;;;;;;;5.05;0.63;;;5.10;99.90;;;;;;4964654;28;20041;-84
2022/02/20 04:56:00;;;;;;;4.93;0.60;;;5.10;99.90;;;;;;4967670;28;20022;-85
2022/02/20 04:58:40;;;;;;;6.13;0.90;;;5.10;99.90;;;;;;4950772;28;20030;-84
2022/02/20 05:01:17;;;;;;;6.60;0.98;;;5.10;99.90;;;;;;4937685;28;20053;-84
2022/02/20 05:04:05;;;;;;;7.53;0.95;;;5.10;99.90;;;;;;4949111;28;20039;-85
2022/02/20 05:06:41;;;;;;;5.93;1.23;;;5.10;99.90;;;;;;4965749;28;20042;-85
2022/02/20 05:09:14;;;;;;;8.85;1.00;;;5.20;99.90;;;;;;4964094;28;20038;-86
2022/02/20 05:11:51;;;;;;;7.47;1.33;;;5.20;99.90;;;;;;4977892;28;20073;-86
2022/02/20 05:14:20;;;;;;;5.65;1.20;;;5.10;99.90;;;;;;4960992;28;20049;-85
2022/02/20 05:16:48;;;;;;;6.33;1.37;;;5.10;99.90;;;;;;4959568;28;20375;-85
2022/02/20 05:19:23;;;;;;;4.25;1.50;;;5.20;99.90;;;;;;4957527;28;20057;-86
2022/02/20 05:21:55;;;;;;;5.05;1.50;;;5.10;99.90;;;;;;4963084;28;21534;-86
2022/02/20 05:24:26;;;;;;;6.33;1.63;;;5.20;99.90;;;;;;4961475;28;20409;-87
2022/02/20 05:26:57;;;;;;;7.70;2.25;;;5.20;99.90;;;;;;4961356;28;20026;-87
2022/02/20 05:29:30;;;;;;;7.90;1.60;;;5.20;99.90;;;;;;4949687;28;20030;-86
2022/02/20 05:32:00;;;;;;;8.43;2.03;;;5.20;99.90;;;;;;4946816;28;20042;-85
2022/02/20 05:34:46;;;;;;;6.35;2.10;;;5.10;99.90;;;;;;4975297;28;20034;-85
2022/02/20 05:37:17;;;;;;;9.03;2.40;;;5.20;99.90;;;;;;4957598;28;20042;-86
2022/02/20 05:39:49;;;;;;;11.87;3.63;;;5.20;99.90;;;;;;4963433;28;20041;-87
2022/02/20 05:42:20;;;;;;;8.30;2.90;;;5.10;99.90;;;;;;4970435;28;20057;-88
2022/02/20 05:45:16;;;;;;;9.63;3.50;;;5.10;99.90;;;;;;4962774;28;20041;-87
2022/02/20 05:47:52;;;;;;;10.97;3.50;;;5.10;99.90;;;;;;4972312;28;20034;-86
2022/02/20 05:50:37;;;;;;;13.15;4.80;;;5.10;99.90;;;;;;4980636;28;20045;-86
2022/02/20 05:53:07;;;;;;;13.10;5.03;;;5.10;99.90;;;;;;4957127;28;20023;-85
2022/02/20 05:55:38;;;;;;;12.82;6.25;;;5.00;99.90;;;;;;4975735;28;20022;-86
2022/02/20 05:58:16;;;;;;;10.10;5.57;;;5.00;99.90;;;;;;4976478;28;20034;-85
2022/02/20 06:00:52;;;;;;;15.37;6.03;;;5.00;99.90;;;;;;4974835;28;20045;-86
2022/02/20 06:03:22;;;;;;;16.33;7.07;;;5.00;99.90;;;;;;4973721;28;20040;-85
2022/02/20 06:06:32;;;;;;;13.83;6.70;;;5.00;99.90;;;;;;4971728;28;20118;-86
2022/02/20 06:09:22;;;;;;;22.40;9.03;;;5.00;99.90;;;;;;4933141;28;20057;-86
2022/02/20 06:11:58;;;;;;;14.27;6.93;;;5.00;99.90;;;;;;4976690;28;20498;-86
2022/02/20 06:14:58;;;;;;;19.75;7.47;;;5.00;99.90;;;;;;4964283;28;20536;-87
2022/02/20 06:17:46;;;;;;;12.32;6.38;;;5.00;99.90;;;;;;4955816;28;20122;-86
2022/02/20 06:20:38;;;;;;;22.75;8.10;;;5.10;99.90;;;;;;4991642;28;20027;-85
2022/02/20 06:23:06;;;;;;;17.30;7.20;;;5.10;99.90;;;;;;4959898;28;20454;-85
2022/02/20 06:25:47;;;;;;;17.27;6.80;;;5.10;99.90;;;;;;4941584;28;20038;-85
2022/02/20 06:28:20;;;;;;;19.20;6.13;;;5.10;99.90;;;;;;4972178;28;20026;-83
2022/02/20 06:30:49;;;;;;;17.52;7.40;;;5.10;99.90;;;;;;4946137;28;20038;-86
2022/02/20 06:33:24;;;;;;;17.30;6.15;;;5.10;99.90;;;;;;4952251;28;20037;-85
2022/02/20 06:35:53;;;;;;;21.25;7.82;;;5.20;99.90;;;;;;4947607;28;20038;-86
2022/02/20 06:38:19;;;;;;;14.97;5.37;;;5.20;99.90;;;;;;4976246;28;20048;-86
2022/02/20 06:40:55;;;;;;;17.77;5.90;;;5.30;99.90;;;;;;4946738;28;20030;-86
2022/02/20 06:43:32;;;;;;;14.98;6.82;;;5.30;99.90;;;;;;4945787;28;20034;-86
2022/02/20 06:46:20;;;;;;;21.43;7.13;;;5.40;99.90;;;;;;4978860;28;20029;-86
2022/02/20 06:49:04;;;;;;;24.33;7.25;;;5.40;99.90;;;;;;4949462;28;20038;-85
2022/02/20 06:51:52;;;;;;;23.65;6.35;;;5.40;99.90;;;;;;4952162;28;20037;-86
2022/02/20 06:54:42;;;;;;;21.98;7.28;;;5.50;99.90;;;;;;4957396;28;20033;-85
2022/02/20 06:57:22;;;;;;;19.43;5.50;;;5.50;99.90;;;;;;4959143;28;20042;-85
2022/02/20 06:59:52;;;;;;;20.17;5.25;;;5.60;99.90;;;;;;4960622;28;20037;-84
2022/02/20 07:02:19;;;;;;;16.42;5.70;;;5.60;99.90;;;;;;4977896;28;20022;-84
2022/02/20 07:04:45;;;;;;;18.17;5.65;;;5.60;99.90;;;;;;4978389;28;20030;-84
2022/02/20 07:07:12;;;;;;;16.58;5.20;;;5.70;99.90;;;;;;4956172;28;20056;-83
2022/02/20 07:09:39;;;;;;;13.52;4.97;;;5.80;99.90;;;;;;4944230;28;20034;-86
2022/02/20 07:12:11;;;;;;;14.90;4.28;;;5.80;99.90;;;;;;4994988;28;20033;-85
2022/02/20 07:14:38;;;;;;;24.98;5.75;;;5.90;99.90;;;;;;4972540;28;20492;-86
2022/02/20 07:17:04;;;;;;;15.00;3.95;;;5.90;99.90;;;;;;4943451;28;20036;-86
2022/02/20 07:19:40;;;;;;;15.57;3.87;;;5.90;99.90;;;;;;4959939;28;20030;-84
2022/02/20 07:22:12;;;;;;;17.25;4.07;;;6.00;99.90;;;;;;4974654;28;20026;-85
2022/02/20 07:24:39;;;;;;;13.23;3.10;;;6.10;99.90;;;;;;4955815;28;20034;-84
2022/02/20 07:27:06;;;;;;;13.13;3.20;;;6.20;99.90;;;;;;4943355;28;20037;-84
2022/02/20 07:29:32;;;;;;;14.55;3.22;;;6.20;99.90;;;;;;4944363;28;20030;-85
2022/02/20 07:31:59;;;;;;;14.35;3.13;;;6.20;99.90;;;;;;4957676;28;20046;-85
2022/02/20 07:34:25;;;;;;;21.38;3.53;;;6.30;99.90;;;;;;4975241;28;20379;-85
2022/02/20 07:36:52;;;;;;;15.13;3.58;;;6.30;99.90;;;;;;4926528;28;20035;-84
2022/02/20 07:39:19;;;;;;;13.40;3.33;;;6.40;99.90;;;;;;4974495;28;20026;-86
2022/02/20 07:41:48;;;;;;;17.90;3.88;;;6.40;99.90;;;;;;4945785;28;20634;-86
2022/02/20 07:44:17;;;;;;;15.43;2.67;;;6.50;99.90;;;;;;4956391;28;20042;-85
2022/02/20 07:46:44;;;;;;;13.90;3.00;;;6.50;99.90;;;;;;4974897;28;20049;-86
2022/02/20 07:49:11;;;;;;;14.30;2.95;;;6.50;99.90;;;;;;4973058;28;20030;-85
2022/02/20 07:51:38;;;;;;;14.15;2.90;;;6.60;99.90;;;;;;4941247;28;20057;-86
2022/02/20 07:54:04;;;;;;;24.38;5.70;;;6.70;99.90;;;;;;4960568;28;20025;-86
2022/02/20 07:56:34;;;;;;;15.02;3.65;;;6.70;99.90;;;;;;4944705;28;20019;-87
2022/02/20 07:59:06;;;;;;;15.60;2.97;;;6.80;99.90;;;;;;4947149;28;20042;-83
2022/02/20 08:01:33;;;;;;;14.68;2.08;;;6.90;99.90;;;;;;4974953;28;20041;-84
2022/02/20 08:03:59;;;;;;;15.57;2.83;;;6.90;99.90;;;;;;4959137;28;20034;-83
2022/02/20 08:06:28;;;;;;;13.27;1.83;;;7.00;99.90;;;;;;4956612;28;20033;-84
2022/02/20 08:08:57;;;;;;;12.48;2.30;;;7.00;99.90;;;;;;4984858;28;20041;-83
2022/02/20 08:11:33;;;;;;;14.27;3.08;;;7.10;99.90;;;;;;4943158;28;20383;-84
2022/02/20 08:14:02;;;;;;;11.65;2.25;;;7.10;99.90;;;;;;4960603;28;20041;-86
2022/02/20 08:16:32;;;;;;;9.60;2.80;;;7.20;99.90;;;;;;4977185;28;20019;-86
2022/02/20 08:18:59;;;;;;;11.35;3.10;;;7.30;99.90;;;;;;4958922;28;20031;-86
2022/02/20 08:21:28;;;;;;;15.13;3.50;;;7.40;99.90;;;;;;4975306;28;20037;-86
2022/02/20 08:23:56;;;;;;;9.95;2.72;;;7.40;99.90;;;;;;4942981;28;20453;-85
2022/02/20 08:26:22;;;;;;;9.15;3.25;;;7.50;99.90;;;;;;4972051;28;20025;-84
2022/02/20 08:28:49;;;;;;;9.75;4.05;;;7.60;99.90;;;;;;4972450;28;20043;-81
2022/02/20 08:31:16;;;;;;;7.35;3.00;;;7.60;99.90;;;;;;4957186;28;20046;-84
2022/02/20 08:33:53;;;;;;;7.90;3.15;;;7.70;99.90;;;;;;4971586;28;20118;-84
2022/02/20 08:36:24;;;;;;;11.98;4.35;;;7.80;99.90;;;;;;4975804;28;20018;-87
2022/02/20 08:38:52;;;;;;;9.25;3.70;;;7.90;99.90;;;;;;4943055;28;20033;-82
2022/02/20 08:41:21;;;;;;;10.27;3.75;;;7.90;99.90;;;;;;4975374;28;20038;-83
2022/02/20 08:43:49;;;;;;;7.95;4.28;;;8.00;99.90;;;;;;4939766;28;20389;-84
2022/02/20 08:46:17;;;;;;;12.88;4.85;;;8.10;99.90;;;;;;4958961;28;20462;-86
2022/02/20 08:48:45;;;;;;;9.02;4.10;;;8.10;99.90;;;;;;4940485;28;20046;-84
2022/02/20 08:51:17;;;;;;;10.43;4.53;;;8.10;99.90;;;;;;4950065;28;20497;-86
2022/02/20 08:53:44;;;;;;;8.35;3.42;;;8.20;99.90;;;;;;4992844;28;20034;-85
2022/02/20 08:56:11;;;;;;;13.13;5.80;;;8.30;99.90;;;;;;4962122;28;20041;-87
2022/02/20 08:58:37;;;;;;;11.57;4.90;;;8.30;99.90;;;;;;4961718;28;20049;-85
2022/02/20 09:01:04;;;;;;;9.45;4.65;;;8.30;99.90;;;;;;4981781;28;20516;-84
2022/02/20 09:03:31;;;;;;;12.95;5.75;;;8.40;99.90;;;;;;4978804;28;20049;-85
2022/02/20 09:05:58;;;;;;;9.02;5.65;;;8.40;99.90;;;;;;4962083;28;20481;-85
2022/02/20 09:08:26;;;;;;;13.27;6.05;;;8.50;99.90;;;;;;4959496;28;20486;-84
2022/02/20 09:10:54;;;;;;;14.43;6.90;;;8.50;99.90;;;;;;4963346;28;20046;-84
2022/02/20 09:13:20;;;;;;;17.13;7.93;;;8.60;99.90;;;;;;4960668;28;20030;-84
2022/02/20 09:15:47;;;;;;;16.45;6.13;;;8.60;99.90;;;;;;4963831;28;20573;-85
2022/02/20 09:18:16;;;;;;;21.23;7.35;;;8.70;99.90;;;;;;4975394;28;20049;-84
2022/02/20 09:20:43;;;;;;;16.73;6.93;;;8.70;99.90;;;;;;4994083;28;20038;-85
2022/02/20 09:23:10;;;;;;;20.73;8.15;;;8.70;99.90;;;;;;4962865;28;20026;-84
2022/02/20 09:25:37;;;;;;;24.00;7.53;;;8.80;99.90;;;;;;4977566;28;20029;-85
2022/02/20 09:28:09;;;;;;;24.63;10.50;;;8.80;99.90;;;;;;4992609;28;20378;-83
2022/02/20 09:30:36;;;;;;;23.77;9.85;;;8.90;99.90;;;;;;4963962;28;20473;-83
2022/02/20 09:33:03;;;;;;;26.73;9.25;;;8.90;99.90;;;;;;4998955;28;20045;-84
2022/02/20 09:35:30;;;;;;;24.17;9.50;;;8.90;99.90;;;;;;4957474;28;20022;-85
2022/02/20 09:37:56;;;;;;;25.05;10.55;;;9.00;99.90;;;;;;4956567;28;20048;-86
2022/02/20 09:40:24;;;;;;;24.20;9.35;;;9.00;99.90;;;;;;4946336;28;20471;-84
2022/02/20 09:42:53;;;;;;;31.65;11.80;;;9.00;99.90;;;;;;4973796;28;20025;-85
2022/02/20 09:45:20;;;;;;;28.15;10.30;;;9.10;99.90;;;;;;4979090;28;20045;-84
2022/02/20 09:47:47;;;;;;;28.35;9.57;;;9.10;99.90;;;;;;4958354;28;20361;-85
2022/02/20 09:50:17;;;;;;;35.83;12.57;;;9.10;99.90;;;;;;4944976;28;20038;-84
2022/02/20 09:52:43;;;;;;;35.22;12.52;;;9.20;99.90;;;;;;4964581;28;20304;-85
2022/02/20 09:55:10;;;;;;;31.00;10.63;;;9.20;99.90;;;;;;4962127;28;20504;-83
2022/02/20 09:57:37;;;;;;;32.28;11.90;;;9.30;99.90;;;;;;4962492;28;20018;-83
2022/02/20 10:00:08;;;;;;;39.67;11.55;;;9.30;99.90;;;;;;4947596;28;20053;-83
2022/02/20 10:02:42;;;;;;;41.25;11.45;;;9.30;99.90;;;;;;4976749;28;20358;-83
2022/02/20 10:05:21;;;;;;;31.90;10.00;;;9.40;99.90;;;;;;4962998;28;20500;-83
2022/02/20 10:07:48;;;;;;;37.95;10.60;;;9.40;99.90;;;;;;4986999;28;20030;-83
2022/02/20 10:10:27;;;;;;;40.30;10.43;;;9.40;99.90;;;;;;4961309;28;20034;-83
2022/02/20 10:13:04;;;;;;;34.95;10.32;;;9.40;99.90;;;;;;4977149;28;20034;-83
2022/02/20 10:15:40;;;;;;;36.88;10.30;;;9.40;99.90;;;;;;4978847;28;20025;-84
2022/02/20 10:18:30;;;;;;;30.70;8.68;;;9.50;99.90;;;;;;4971679;28;20030;-83
2022/02/20 10:21:29;;;;;;;37.50;8.52;;;9.50;99.90;;;;;;4930252;28;20483;-84
2022/02/20 10:24:18;;;;;;;34.17;8.30;;;9.50;99.90;;;;;;4974118;28;20022;-83
2022/02/20 10:27:08;;;;;;;41.33;9.00;;;9.50;99.90;;;;;;4973283;28;20206;-84
2022/02/20 10:30:19;;;;;;;33.97;8.18;;;9.50;99.90;;;;;;4970955;28;20493;-84
2022/02/20 10:33:02;;;;;;;38.03;7.78;;;9.50;99.90;;;;;;4978638;28;20056;-83
2022/02/20 10:35:34;;;;;;;38.92;8.25;;;9.60;99.90;;;;;;4988782;28;20465;-83
2022/02/20 10:38:11;;;;;;;41.13;8.05;;;9.60;99.90;;;;;;4959100;28;20040;-83
2022/02/20 10:40:39;;;;;;;39.08;7.60;;;9.60;99.90;;;;;;4959649;28;20029;-84
2022/02/20 10:43:08;;;;;;;34.67;7.53;;;9.60;99.90;;;;;;4980751;28;20014;-83
2022/02/20 10:45:39;;;;;;;45.88;8.23;;;9.60;99.90;;;;;;4977146;28;20026;-83
2022/02/20 10:48:18;;;;;;;41.15;8.45;;;9.60;99.90;;;;;;4969692;28;20366;-83
2022/02/20 10:50:55;;;;;;;46.10;8.23;;;9.70;99.90;;;;;;4959091;28;20499;-83
2022/02/20 10:53:30;;;;;;;43.47;7.60;;;9.70;99.90;;;;;;4945421;28;20406;-85
2022/02/20 10:55:59;;;;;;;40.72;6.85;;;9.60;99.90;;;;;;4963545;28;20420;-85
2022/02/20 10:58:31;;;;;;;36.83;6.30;;;9.70;99.90;;;;;;4970669;28;20034;-84
2022/02/20 11:01:02;;;;;;;43.10;8.10;;;9.70;99.90;;;;;;4961263;28;20022;-84
2022/02/20 11:03:36;;;;;;;38.55;7.28;;;9.70;99.90;;;;;;4976083;28;20030;-84
2022/02/20 11:06:03;;;;;;;49.75;7.22;;;9.70;99.90;;;;;;4959328;28;20026;-85
2022/02/20 11:08:30;;;;;;;41.25;5.93;;;9.70;99.90;;;;;;4954337;28;20482;-84
2022/02/20 11:10:58;;;;;;;43.83;7.75;;;9.70;99.90;;;;;;4958499;28;20054;-84
2022/02/20 11:13:25;;;;;;;47.35;7.95;;;9.70;99.90;;;;;;4992357;28;20038;-84
2022/02/20 11:15:54;;;;;;;39.85;7.20;;;9.70;99.90;;;;;;4959366;28;20362;-85
2022/02/20 11:18:22;;;;;;;39.88;6.53;;;9.70;99.90;;;;;;4973849;28;20034;-82
2022/02/20 11:20:53;;;;;;;55.53;6.95;;;9.70;99.90;;;;;;4946287;28;20045;-82
2022/02/20 11:23:28;;;;;;;47.13;6.82;;;9.70;99.90;;;;;;4991397;28;20118;-82
2022/02/20 11:25:59;;;;;;;36.25;6.05;;;9.70;99.90;;;;;;4975693;28;20033;-83
2022/02/20 11:28:25;;;;;;;43.70;5.90;;;9.80;99.90;;;;;;4943182;28;20027;-82
2022/02/20 11:30:58;;;;;;;42.17;6.25;;;9.80;99.90;;;;;;4944492;28;20026;-85
2022/02/20 11:33:26;;;;;;;43.10;6.65;;;9.70;99.90;;;;;;4973864;28;20049;-83
2022/02/20 11:35:53;;;;;;;40.38;6.72;;;9.80;99.90;;;;;;4958865;28;20346;-82
2022/02/20 11:38:21;;;;;;;46.45;7.60;;;9.80;99.90;;;;;;4956514;28;20030;-82
2022/02/20 11:41:02;;;;;;;41.22;6.68;;;9.80;99.90;;;;;;4974796;28;20034;-82
2022/02/20 11:43:41;;;;;;;41.33;6.53;;;9.80;99.90;;;;;;4957535;28;20381;-82
2022/02/20 11:46:12;;;;;;;41.83;6.30;;;9.80;99.90;;;;;;4955250;28;20031;-82
2022/02/20 11:49:17;;;;;;;41.20;6.00;;;9.80;99.90;;;;;;4953885;28;20450;-82
2022/02/20 11:52:02;;;;;;;33.78;5.05;;;9.80;99.90;;;;;;4925916;29;20467;-83
2022/02/20 11:54:37;;;;;;;40.80;5.18;;;9.80;99.90;;;;;;4939873;28;20481;-83
2022/02/20 11:57:13;;;;;;;43.75;5.05;;;9.80;99.90;;;;;;4969481;28;20125;-82
2022/02/20 11:59:41;;;;;;;31.27;5.53;;;9.70;99.90;;;;;;4991734;28;20026;-83
2022/02/20 12:02:09;;;;;;;36.17;5.20;;;9.80;99.90;;;;;;4956618;28;20389;-83
2022/02/20 12:04:51;;;;;;;36.53;5.15;;;9.80;99.90;;;;;;4962979;28;20811;-83
2022/02/20 12:07:42;;;;;;;26.48;4.90;;;9.70;99.90;;;;;;4967930;28;20044;-82
2022/02/20 12:10:29;;;;;;;28.65;5.22;;;9.70;99.90;;;;;;4944225;28;20061;-83
2022/02/20 12:13:03;;;;;;;34.30;4.50;;;9.70;99.90;;;;;;4955155;28;20398;-83
2022/02/20 12:15:34;;;;;;;31.65;4.63;;;9.70;99.90;;;;;;4989886;28;20050;-83
2022/02/20 12:18:13;;;;;;;40.85;4.85;;;9.70;99.90;;;;;;4957038;28;20033;-84
2022/02/20 12:20:51;;;;;;;31.95;4.40;;;9.70;99.90;;;;;;4982579;28;20355;-83
2022/02/20 12:23:32;;;;;;;29.38;5.05;;;9.70;99.90;;;;;;4943343;28;20142;-84
2022/02/20 12:26:04;;;;;;;30.45;4.82;;;9.70;99.90;;;;;;4957443;28;20038;-79
2022/02/20 12:28:32;;;;;;;38.73;4.40;;;9.60;99.90;;;;;;4974222;28;20034;-82
2022/02/20 12:31:08;;;;;;;35.55;4.90;;;9.70;99.90;;;;;;4972719;28;20293;-84
2022/02/20 12:33:37;;;;;;;26.90;4.32;;;9.70;99.90;;;;;;4991465;28;21151;-81
2022/02/20 12:36:06;;;;;;;41.65;6.22;;;9.60;99.90;;;;;;4956259;28;20047;-79
2022/02/20 12:38:33;;;;;;;35.20;4.95;;;9.60;99.90;;;;;;4972182;28;20030;-81
2022/02/20 12:40:59;;;;;;;28.08;4.00;;;9.60;99.90;;;;;;4963610;28;20027;-81
2022/02/20 12:43:26;;;;;;;33.35;6.28;;;9.60;99.90;;;;;;4944851;28;21340;-79
2022/02/20 12:45:53;;;;;;;30.80;6.20;;;9.60;99.90;;;;;;4956978;28;20050;-85
2022/02/20 12:48:20;;;;;;;28.88;5.50;;;9.60;99.90;;;;;;4939368;28;20030;-83
2022/02/20 12:50:50;;;;;;;33.72;5.90;;;9.60;99.90;;;;;;4955618;28;20034;-83
2022/02/20 12:53:18;;;;;;;37.28;5.97;;;9.50;99.90;;;;;;4952341;28;20054;-79
2022/02/20 12:55:45;;;;;;;33.15;5.68;;;9.50;99.90;;;;;;4969832;28;20056;-76
2022/02/20 12:58:14;;;;;;;37.40;6.25;;;9.50;99.90;;;;;;4984831;28;20011;-77
2022/02/20 13:00:43;;;;;;;36.58;5.80;;;9.50;99.90;;;;;;4975062;28;20033;-76
2022/02/20 13:03:14;;;;;;;34.33;5.53;;;9.50;99.90;;;;;;4941844;28;20034;-78
2022/02/20 13:05:47;;;;;;;47.53;7.95;;;9.50;99.90;;;;;;4958548;28;20493;-76
2022/02/20 13:08:20;;;;;;;31.85;4.88;;;9.50;99.90;;;;;;4985576;28;20030;-79
2022/02/20 13:10:49;;;;;;;30.80;4.95;;;9.50;99.90;;;;;;4973636;28;20035;-76
2022/02/20 13:13:18;;;;;;;34.50;6.72;;;9.50;99.90;;;;;;4955819;28;20033;-76
2022/02/20 13:15:56;;;;;;;33.97;6.07;;;9.50;99.90;;;;;;4971964;28;20026;-76